Time;durP1;ratioP1;P1;durP2;ratioP2;P2;SDS_P1;SDS_P2;PMS_P1;PMS_P2;Temp;Humidity;BMP_temperature;BMP_pressure;BME280_temperature;BME280_humidity;BME280_pressure;Samples;Min_cycle;Max_cycle;Signal;HPM_P1;HPM_P2
2022/06/14 00:02:33;;;;;;;10.70;2.20;;;;;;;11.97;85.37;102308.72;5074354;28;20045;-57
2022/06/14 00:05:01;;;;;;;7.88;2.00;;;;;;;12.05;85.94;102313.59;5074132;28;20055;-57
2022/06/14 00:07:29;;;;;;;7.30;2.17;;;;;;;12.09;84.68;102309.94;5074113;28;20052;-55
2022/06/14 00:09:57;;;;;;;9.10;2.10;;;;;;;11.97;86.29;102310.47;5073984;28;20071;-56
2022/06/14 00:12:26;;;;;;;8.13;2.10;;;;;;;11.96;87.03;102314.06;5074062;28;20049;-48
2022/06/14 00:14:57;;;;;;;8.55;2.58;;;;;;;12.05;86.87;102302.22;5074008;28;20044;-49
2022/06/14 00:17:25;;;;;;;11.35;2.53;;;;;;;11.94;87.74;102306.25;5073908;28;20040;-49
2022/06/14 00:19:53;;;;;;;9.48;2.63;;;;;;;11.87;88.73;102303.94;5073774;28;20119;-57
2022/06/14 00:22:21;;;;;;;6.20;2.05;;;;;;;11.80;89.95;102303.38;5074404;28;20048;-50
2022/06/14 00:24:49;;;;;;;8.48;2.53;;;;;;;11.77;90.48;102306.16;5073961;28;20067;-57
2022/06/14 00:27:17;;;;;;;11.18;2.40;;;;;;;11.77;90.52;102304.34;5072729;28;20048;-48
2022/06/14 00:29:45;;;;;;;12.07;2.10;;;;;;;11.80;90.15;102308.63;5072540;28;20032;-56
2022/06/14 00:32:15;;;;;;;10.02;2.65;;;;;;;11.79;90.50;102310.44;5073940;28;20058;-57
2022/06/14 00:34:43;;;;;;;9.00;2.65;;;;;;;11.75;90.94;102310.63;5072901;28;20048;-46
2022/06/14 00:37:15;;;;;;;7.35;2.38;;;;;;;11.65;91.65;102316.31;5073102;28;20143;-50
2022/06/14 00:39:44;;;;;;;6.70;2.53;;;;;;;11.67;91.11;102314.47;5073300;28;20095;-55
2022/06/14 00:42:18;;;;;;;9.82;2.25;;;;;;;11.66;91.64;102302.22;5073588;28;20139;-57
2022/06/14 00:45:02;;;;;;;7.63;2.30;;;;;;;11.58;91.69;102308.78;5073367;28;20036;-48
2022/06/14 00:47:36;;;;;;;11.93;2.67;;;;;;;11.52;91.07;102307.28;5072960;28;20032;-48
2022/06/14 00:50:13;;;;;;;10.60;2.33;;;;;;;11.46;90.85;102305.78;5072623;28;20056;-51
2022/06/14 00:52:45;;;;;;;10.25;2.30;;;;;;;11.42;91.76;102313.88;5072872;28;20083;-50
2022/06/14 00:55:19;;;;;;;11.68;2.85;;;;;;;11.38;91.54;102307.06;5072189;28;20106;-55
2022/06/14 00:57:50;;;;;;;9.73;2.30;;;;;;;11.49;90.83;102310.91;5072390;28;20063;-50
2022/06/14 01:00:23;;;;;;;11.18;2.35;;;;;;;11.49;90.51;102310.03;5072339;28;20045;-50
2022/06/14 01:02:55;;;;;;;8.55;2.33;;;;;;;11.57;90.47;102307.06;5072350;28;20044;-50
2022/06/14 01:05:28;;;;;;;10.60;2.20;;;;;;;11.49;91.60;102304.78;5072852;28;20052;-53
2022/06/14 01:07:58;;;;;;;11.10;2.40;;;;;;;11.48;91.17;102308.34;5072938;28;20064;-57
2022/06/14 01:10:29;;;;;;;9.80;3.08;;;;;;;11.39;91.74;102309.63;5072726;28;20056;-57
2022/06/14 01:13:02;;;;;;;8.35;2.35;;;;;;;11.39;92.60;102306.13;5072788;28;20101;-58
2022/06/14 01:15:31;;;;;;;;;;;;;;;11.44;91.80;102307.63;5073407;28;20048;-52
2022/06/14 01:18:04;;;;;;;8.73;2.30;;;;;;;11.48;91.64;102303.94;5072623;28;19920;-58
2022/06/14 01:20:33;;;;;;;10.25;2.35;;;;;;;11.54;91.55;102301.94;5072550;28;20048;-51
2022/06/14 01:23:03;;;;;;;8.80;2.40;;;;;;;11.34;93.56;102301.06;5072637;28;20587;-52
2022/06/14 01:25:36;;;;;;;12.15;2.58;;;;;;;11.22;94.15;102302.50;5072602;28;20119;-58
2022/06/14 01:28:05;;;;;;;9.63;2.40;;;;;;;11.32;93.27;102303.75;5072601;28;20049;-49
2022/06/14 01:30:42;;;;;;;13.93;2.60;;;;;;;11.35;94.14;102296.66;5072544;28;20047;-57
2022/06/14 01:33:14;;;;;;;9.13;2.53;;;;;;;11.28;93.01;102293.44;5072267;28;20510;-56
2022/06/14 01:35:49;;;;;;;10.23;2.30;;;;;;;11.24;93.71;102295.34;5072275;28;20109;-57
2022/06/14 01:38:19;;;;;;;13.60;2.55;;;;;;;11.30;94.45;102291.59;5072184;28;20048;-56
2022/06/14 01:40:55;;;;;;;11.50;2.72;;;;;;;11.18;94.04;102289.50;5070890;28;20475;-50
2022/06/14 01:43:41;;;;;;;11.18;2.63;;;;;;;11.21;94.42;102284.09;5072188;28;20048;-49
2022/06/14 01:46:23;;;;;;;6.53;2.33;;;;;;;11.18;95.21;102282.47;5072255;28;20055;-58
2022/06/14 01:51:50;;;;;;;9.65;2.33;;;;;;;11.14;95.92;102283.53;5072139;28;20045;-48
2022/06/14 01:52:02;;;;;;;11.93;3.08;;;;;;;11.18;94.96;102278.97;5072051;28;20051;-57
2022/06/14 01:54:41;;;;;;;10.20;2.45;;;;;;;11.13;96.15;102277.41;5072137;28;20058;-51
2022/06/14 01:57:18;;;;;;;7.95;2.33;;;;;;;11.10;95.17;102277.53;5072392;28;20395;-49
2022/06/14 01:59:55;;;;;;;7.82;2.33;;;;;;;11.14;95.57;102275.66;5071938;28;20033;-58
2022/06/14 02:02:29;;;;;;;10.93;2.78;;;;;;;11.01;96.21;102267.41;5071850;28;20067;-58
2022/06/14 02:05:01;;;;;;;11.88;3.00;;;;;;;10.94;96.38;102269.47;5071671;28;20438;-52
2022/06/14 02:07:38;;;;;;;9.55;3.20;;;;;;;10.94;96.56;102266.84;5071500;28;20706;-58
2022/06/14 02:10:13;;;;;;;10.35;2.80;;;;;;;10.91;97.57;102268.78;5071844;28;20049;-58
2022/06/14 02:12:46;;;;;;;11.40;3.22;;;;;;;10.83;97.39;102266.47;5072031;28;20056;-58
2022/06/14 02:15:23;;;;;;;8.68;2.88;;;;;;;10.81;97.27;102270.91;5070790;28;20499;-59
2022/06/14 02:17:57;;;;;;;10.50;2.70;;;;;;;10.86;96.47;102268.94;5072033;28;20052;-51
2022/06/14 02:20:32;;;;;;;10.38;2.40;;;;;;;10.84;97.50;102268.19;5071577;28;20044;-57
2022/06/14 02:23:04;;;;;;;10.98;3.58;;;;;;;10.78;97.23;102269.31;5071745;28;20048;-49
2022/06/14 02:25:39;;;;;;;13.05;2.65;;;;;;;10.87;96.33;102267.19;5071846;28;20056;-58
2022/06/14 02:28:15;;;;;;;11.90;3.70;;;;;;;10.82;97.29;102268.25;5071719;28;20432;-58
2022/06/14 02:30:48;;;;;;;12.70;2.70;;;;;;;10.82;97.31;102270.88;5071508;28;20052;-50
2022/06/14 02:33:19;;;;;;;;;;;;;;;10.78;97.92;102271.94;5072224;28;20053;-49
2022/06/14 02:35:54;;;;;;;8.55;3.40;;;;;;;10.69;97.64;102266.19;5071562;28;19921;-52
2022/06/14 02:38:28;;;;;;;9.63;3.00;;;;;;;10.72;98.05;102260.81;5071653;28;20052;-53
2022/06/14 02:41:03;;;;;;;9.85;2.80;;;;;;;10.58;99.66;102262.25;5071607;28;20102;-56
2022/06/14 02:43:36;;;;;;;10.35;2.75;;;;;;;10.57;99.03;102265.81;5071570;28;20067;-57
2022/06/14 02:46:11;;;;;;;11.80;2.70;;;;;;;10.52;99.47;102270.41;5071557;28;20044;-51
2022/06/14 02:48:44;;;;;;;13.18;3.03;;;;;;;10.56;98.92;102269.34;5071638;28;20048;-46
2022/06/14 02:51:17;;;;;;;10.77;2.85;;;;;;;10.50;99.45;102264.38;5071526;28;20051;-51
2022/06/14 02:53:49;;;;;;;10.63;3.00;;;;;;;10.43;99.74;102266.41;5071795;28;20083;-51
2022/06/14 02:56:23;;;;;;;12.02;3.15;;;;;;;10.45;100.00;102263.69;5071461;28;20056;-57
2022/06/14 02:58:57;;;;;;;13.02;3.58;;;;;;;10.40;99.74;102260.41;5071482;28;20454;-57
2022/06/14 03:01:32;;;;;;;12.23;3.47;;;;;;;10.38;99.87;102257.84;5071222;28;20111;-58
2022/06/14 03:04:05;;;;;;;12.82;3.05;;;;;;;10.38;99.87;102257.84;5071361;28;20045;-57
2022/06/14 03:06:37;;;;;;;9.25;2.63;;;;;;;10.38;100.00;102257.84;5071392;28;20123;-51
2022/06/14 03:09:13;;;;;;;12.17;2.87;;;;;;;10.33;100.00;102257.13;5071207;28;20053;-57
2022/06/14 03:11:54;;;;;;;9.55;2.78;;;;;;;10.41;100.00;102243.69;5071303;28;20131;-50
2022/06/14 03:14:30;;;;;;;6.93;2.90;;;;;;;10.36;100.00;102250.91;5071148;28;20053;-58
2022/06/14 03:17:14;;;;;;;10.50;3.53;;;;;;;10.30;100.00;102250.22;5070536;28;20111;-49
2022/06/14 03:19:49;;;;;;;11.10;3.92;;;;;;;10.29;100.00;102256.41;5074986;28;20047;-52
2022/06/14 03:22:24;;;;;;;10.23;2.92;;;;;;;10.25;100.00;102251.34;5074862;28;20418;-58
2022/06/14 03:24:59;;;;;;;11.93;3.38;;;;;;;10.16;100.00;102255.22;5075005;28;20045;-51
2022/06/14 03:27:34;;;;;;;17.77;3.92;;;;;;;10.14;100.00;102257.91;5074843;28;20052;-58
2022/06/14 03:30:07;;;;;;;11.07;4.18;;;;;;;10.11;100.00;102255.38;5074404;28;20051;-57
2022/06/14 03:32:40;;;;;;;10.70;3.38;;;;;;;10.16;100.00;102247.31;5075034;28;20106;-57
2022/06/14 03:35:13;;;;;;;10.13;3.35;;;;;;;10.09;100.00;102253.72;5074453;28;20048;-51
2022/06/14 03:37:41;;;;;;;;;;;;;;;10.20;100.00;102264.69;5074105;28;20060;-48
2022/06/14 03:40:14;;;;;;;13.07;3.90;;;;;;;10.15;100.00;102253.50;5074275;28;20019;-56
2022/06/14 03:42:44;;;;;;;9.65;3.47;;;;;;;10.10;100.00;102255.44;5074673;28;20522;-48
2022/06/14 03:45:16;;;;;;;11.48;3.45;;;;;;;10.15;100.00;102266.63;5074574;28;20051;-51
2022/06/14 03:47:44;;;;;;;12.18;3.83;;;;;;;10.08;100.00;102262.56;5074700;28;20082;-57
2022/06/14 03:50:16;;;;;;;11.88;3.70;;;;;;;10.14;100.00;102257.91;5074361;28;20064;-52
2022/06/14 03:53:05;;;;;;;12.80;3.78;;;;;;;10.08;100.00;102255.50;5074444;28;20411;-52
2022/06/14 03:55:50;;;;;;;11.63;3.95;;;;;;;10.19;100.00;102262.13;5074511;28;20047;-51
2022/06/14 03:58:36;;;;;;;12.13;3.38;;;;;;;10.11;100.00;102257.16;5074201;28;20082;-57
2022/06/14 04:01:12;;;;;;;12.88;3.63;;;;;;;10.06;100.00;102256.50;5074006;28;20514;-51
2022/06/14 04:03:51;;;;;;;11.60;3.20;;;;;;;10.03;100.00;102257.47;5074396;28;20049;-58
2022/06/14 04:06:45;;;;;;;12.60;3.47;;;;;;;9.95;100.00;102259.53;5072530;28;20056;-58
2022/06/14 04:09:27;;;;;;;9.13;3.47;;;;;;;10.06;100.00;102264.38;5070565;28;20041;-57
2022/06/14 04:12:02;;;;;;;8.80;3.27;;;;;;;10.05;100.00;102249.50;5073368;28;20044;-51
2022/06/14 04:14:42;;;;;;;14.80;3.80;;;;;;;9.98;100.00;102257.66;5074254;28;20109;-56
2022/06/14 04:17:18;;;;;;;13.13;3.70;;;;;;;9.98;100.00;102256.81;5073804;28;20044;-56
2022/06/14 04:20:02;;;;;;;11.50;4.13;;;;;;;9.97;100.00;102258.56;5071075;28;20041;-55
2022/06/14 04:22:42;;;;;;;9.65;3.70;;;;;;;9.97;100.00;102253.31;5070589;28;20045;-55
2022/06/14 04:25:14;;;;;;;12.50;4.00;;;;;;;10.05;100.00;102244.25;5073673;28;20458;-58
2022/06/14 04:27:52;;;;;;;13.63;4.13;;;;;;;10.07;100.00;102248.53;5074069;28;20152;-57
2022/06/14 04:30:29;;;;;;;10.32;3.58;;;;;;;10.11;100.00;102262.41;5072711;28;20051;-56
2022/06/14 04:33:03;;;;;;;7.93;3.20;;;;;;;10.24;100.00;102258.38;5071478;28;20063;-52
2022/06/14 04:35:37;;;;;;;10.52;3.63;;;;;;;10.20;100.00;102259.41;5069860;28;20061;-51
2022/06/14 04:38:08;;;;;;;8.43;3.28;;;;;;;10.17;100.00;102263.94;5072013;28;20056;-58
2022/06/14 04:40:41;;;;;;;9.00;3.30;;;;;;;10.21;100.00;102263.78;5073540;28;20561;-50
2022/06/14 04:43:15;;;;;;;10.20;3.20;;;;;;;10.27;100.00;102274.03;5073138;28;20106;-56
2022/06/14 04:45:55;;;;;;;12.48;4.03;;;;;;;10.39;100.00;102277.97;5067893;28;20052;-56
2022/06/14 04:48:29;;;;;;;14.32;4.18;;;;;;;10.42;100.00;102277.81;5071362;28;20048;-51
2022/06/14 04:51:03;;;;;;;14.43;4.97;;;;;;;10.38;100.00;102276.25;5073254;28;20040;-56
2022/06/14 04:53:41;;;;;;;11.65;3.80;;;;;;;10.54;100.00;102279.09;5072618;28;20044;-59
2022/06/14 04:56:14;;;;;;;10.80;3.83;;;;;;;10.60;100.00;102276.19;5069530;28;20052;-50
2022/06/14 04:58:47;;;;;;;12.70;5.03;;;;;;;10.69;100.00;102279.34;5071401;28;20526;-47
2022/06/14 05:01:20;;;;;;;12.18;4.00;;;;;;;10.81;100.00;102281.44;5072682;28;20044;-52
2022/06/14 05:03:54;;;;;;;11.35;3.72;;;;;;;10.84;100.00;102276.06;5072997;28;20404;-53
2022/06/14 05:06:27;;;;;;;18.00;4.50;;;;;;;10.88;100.00;102279.41;5071945;28;20049;-51
2022/06/14 05:09:00;;;;;;;13.27;4.07;;;;;;;10.97;100.00;102287.75;5068351;28;20052;-52
2022/06/14 05:11:38;;;;;;;14.10;3.42;;;;;;;11.01;100.00;102285.00;5069956;28;20052;-56
2022/06/14 05:14:12;;;;;;;12.18;3.88;;;;;;;11.08;100.00;102292.53;5072800;28;20090;-51
2022/06/14 05:16:46;;;;;;;12.88;4.00;;;;;;;11.18;100.00;102289.50;5072923;28;20553;-58
2022/06/14 05:19:22;;;;;;;11.77;3.67;;;;;;;11.27;100.00;102292.56;5072583;28;20388;-54
2022/06/14 05:21:56;;;;;;;12.57;3.75;;;;;;;11.40;100.00;102295.53;5072629;28;20040;-57
2022/06/14 05:24:25;;;;;;;13.90;4.25;;;;;;;11.48;100.00;102297.81;5072623;28;20040;-58
2022/06/14 05:27:14;;;;;;;11.60;3.80;;;;;;;11.60;100.00;102294.63;5073006;28;20044;-53
2022/06/14 05:29:47;;;;;;;10.32;3.33;;;;;;;11.70;100.00;102296.78;5072606;28;20052;-52
2022/06/14 05:32:27;;;;;;;12.05;3.72;;;;;;;11.78;100.00;102294.66;5068761;28;20058;-57
2022/06/14 05:35:15;;;;;;;14.07;4.15;;;;;;;11.92;100.00;102294.88;5068117;28;20056;-52
2022/06/14 05:37:56;;;;;;;12.55;3.92;;;;;;;12.04;100.00;102298.75;5072640;28;20056;-54
2022/06/14 05:40:31;;;;;;;12.82;4.05;;;;;;;12.16;100.00;102297.28;5072171;28;20489;-52
2022/06/14 05:43:05;;;;;;;13.85;3.30;;;;;;;12.27;100.00;102302.91;5071040;28;20048;-54
2022/06/14 05:45:41;;;;;;;12.15;3.25;;;;;;;12.38;100.00;102304.13;5072148;28;20507;-58
2022/06/14 05:48:15;;;;;;;9.50;3.42;;;;;;;12.48;100.00;102298.31;5072260;28;20048;-51
2022/06/14 05:50:48;;;;;;;13.68;3.22;;;;;;;12.63;100.00;102301.13;5070511;28;20059;-52
2022/06/14 05:53:21;;;;;;;13.55;3.50;;;;;;;12.75;100.00;102289.94;5068676;28;20048;-53
2022/06/14 05:55:53;;;;;;;16.45;3.17;;;;;;;12.92;98.31;102294.34;5071651;28;20407;-57
2022/06/14 05:58:32;;;;;;;9.27;2.40;;;;;;;13.04;96.77;102297.28;5069991;28;20056;-50
2022/06/14 06:01:06;;;;;;;10.15;2.17;;;;;;;13.18;88.08;102302.69;5067819;28;20052;-57
2022/06/14 06:03:42;;;;;;;8.77;2.47;;;;;;;13.31;89.12;102303.75;5070558;28;20329;-56
2022/06/14 06:06:17;;;;;;;9.40;2.40;;;;;;;13.47;90.01;102295.88;5072217;28;20123;-51
2022/06/14 06:08:48;;;;;;;12.30;2.20;;;;;;;13.65;89.18;102296.66;5071841;28;20059;-57
2022/06/14 06:11:21;;;;;;;10.88;2.47;;;;;;;13.75;88.72;102294.34;5071714;28;20049;-51
2022/06/14 06:13:53;;;;;;;12.15;2.63;;;;;;;13.88;86.42;102297.19;5072495;28;20368;-51
2022/06/14 06:16:25;;;;;;;7.93;1.98;;;;;;;14.09;82.77;102299.53;5072067;28;20044;-53
2022/06/14 06:19:00;;;;;;;7.30;2.08;;;;;;;14.23;81.12;102298.75;5068736;28;20083;-58
2022/06/14 06:21:36;;;;;;;7.25;2.10;;;;;;;14.36;79.23;102299.75;5068213;28;20078;-58
2022/06/14 06:24:11;;;;;;;11.68;2.30;;;;;;;14.45;75.81;102296.56;5071461;28;20447;-58
2022/06/14 06:26:43;;;;;;;11.38;1.95;;;;;;;14.59;77.72;102302.81;5071587;28;20114;-48
2022/06/14 06:29:18;;;;;;;11.68;2.15;;;;;;;14.75;79.02;102295.72;5071588;28;20574;-57
2022/06/14 06:31:47;;;;;;;10.15;2.10;;;;;;;14.93;76.85;102298.19;5071767;28;20094;-57
2022/06/14 06:34:18;;;;;;;9.45;2.10;;;;;;;15.03;76.67;102296.69;5071760;28;20464;-53
2022/06/14 06:36:58;;;;;;;10.45;1.88;;;;;;;15.18;74.88;102294.91;5071836;28;20049;-57
2022/06/14 06:39:34;;;;;;;10.18;2.17;;;;;;;15.36;71.89;102296.38;5071799;28;20048;-52
2022/06/14 06:42:09;;;;;;;11.02;1.90;;;;;;;15.53;70.45;102305.13;5071572;28;20055;-54
2022/06/14 06:44:44;;;;;;;8.68;2.00;;;;;;;15.66;70.44;102303.34;5071735;28;20052;-51
2022/06/14 06:47:16;;;;;;;11.05;2.03;;;;;;;15.76;69.30;102310.72;5071786;28;20101;-53
2022/06/14 06:50:05;;;;;;;8.50;1.90;;;;;;;15.93;69.28;102310.53;5071724;28;20110;-49
2022/06/14 06:52:41;;;;;;;8.45;1.55;;;;;;;16.07;67.52;102314.09;5073278;28;20052;-58
2022/06/14 06:55:13;;;;;;;6.47;1.70;;;;;;;16.19;65.76;102311.47;5075652;28;20055;-50
2022/06/14 06:57:44;;;;;;;9.27;1.65;;;;;;;16.19;66.50;102307.97;5075808;28;20041;-48
2022/06/14 07:00:15;;;;;;;6.35;1.70;;;;;;;16.21;65.30;102314.03;5075436;28;20488;-50
2022/06/14 07:02:47;;;;;;;6.53;1.60;;;;;;;16.43;65.60;102312.59;5075618;28;20055;-58
2022/06/14 07:05:19;;;;;;;10.40;1.77;;;;;;;16.63;65.14;102317.41;5075561;28;20052;-57
2022/06/14 07:07:53;;;;;;;6.55;1.48;;;;;;;16.78;64.09;102318.19;5075523;28;20403;-58
2022/06/14 07:10:36;;;;;;;6.90;1.42;;;;;;;17.01;63.57;102307.81;5075576;28;20045;-57
2022/06/14 07:13:12;;;;;;;9.77;1.87;;;;;;;17.11;60.37;102308.03;5075372;28;20044;-58
2022/06/14 07:15:45;;;;;;;8.82;1.50;;;;;;;17.28;61.15;102312.19;5075329;28;20063;-57
2022/06/14 07:18:17;;;;;;;9.82;1.77;;;;;;;17.33;60.41;102316.22;5075512;28;20049;-58
2022/06/14 07:20:54;;;;;;;8.43;1.38;;;;;;;17.57;61.27;102307.44;5075345;28;20052;-49
2022/06/14 07:23:34;;;;;;;6.97;1.45;;;;;;;17.69;58.55;102309.19;5074725;28;20388;-51
2022/06/14 07:26:10;;;;;;;5.18;1.20;;;;;;;17.82;57.00;102302.97;5075057;28;20516;-57
2022/06/14 07:28:49;;;;;;;5.45;1.65;;;;;;;17.79;58.70;102305.88;5074933;28;20363;-58
2022/06/14 07:31:23;;;;;;;4.47;1.02;;;;;;;17.86;58.14;102309.78;5073475;28;20063;-45
2022/06/14 07:33:52;;;;;;;6.80;1.52;;;;;;;17.84;57.01;102301.91;5074974;28;20075;-57
2022/06/14 07:36:30;;;;;;;7.65;1.60;;;;;;;17.84;57.86;102295.75;5074670;28;20181;-56
2022/06/14 07:39:06;;;;;;;9.50;1.92;;;;;;;17.74;57.48;102301.75;5074924;28;20047;-57
2022/06/14 07:41:44;;;;;;;7.53;1.70;;;;;;;17.64;55.85;102300.72;5073689;28;20052;-49
2022/06/14 07:44:20;;;;;;;6.90;1.88;;;;;;;17.53;56.00;102311.25;5073099;28;20048;-57
2022/06/14 07:47:00;;;;;;;6.78;1.60;;;;;;;17.70;57.38;102310.06;5074495;28;20052;-50
2022/06/14 07:49:35;;;;;;;4.95;1.23;;;;;;;17.58;57.20;102306.47;5074893;28;20045;-57
2022/06/14 07:52:12;;;;;;;5.82;1.48;;;;;;;17.54;56.78;102307.66;5074462;28;20063;-47
2022/06/14 07:54:44;;;;;;;9.43;1.55;;;;;;;17.65;58.67;102297.09;5074357;28;20044;-58
2022/06/14 07:57:17;;;;;;;6.80;1.38;;;;;;;17.65;59.70;102307.72;5074503;28;20045;-51
2022/06/14 07:59:52;;;;;;;8.18;1.67;;;;;;;17.74;58.84;102306.22;5074594;28;20048;-52
2022/06/14 08:02:28;;;;;;;6.47;1.70;;;;;;;17.89;59.41;102299.78;5074111;28;20431;-58
2022/06/14 08:05:02;;;;;;;7.07;1.40;;;;;;;17.98;58.19;102303.59;5074422;28;20135;-51
2022/06/14 08:07:33;;;;;;;6.60;1.40;;;;;;;17.99;56.68;102297.31;5074381;28;20541;-48
2022/06/14 08:10:05;;;;;;;8.60;1.73;;;;;;;18.04;59.00;102305.81;5074296;28;20062;-50
2022/06/14 08:12:37;;;;;;;5.73;1.43;;;;;;;18.01;57.20;102303.38;5074260;28;20070;-50
2022/06/14 08:15:08;;;;;;;7.27;1.70;;;;;;;18.04;57.02;102303.16;5074232;28;20056;-47
2022/06/14 08:17:43;;;;;;;10.57;1.80;;;;;;;18.15;57.61;102302.34;5073976;28;20048;-57
2022/06/14 08:20:21;;;;;;;6.20;1.42;;;;;;;18.15;58.27;102310.34;5074090;28;20052;-47
2022/06/14 08:22:55;;;;;;;9.32;1.60;;;;;;;17.94;55.46;102302.13;5073909;28;20045;-52
2022/06/14 08:25:27;;;;;;;5.68;1.55;;;;;;;17.81;56.09;102301.31;5073832;28;20507;-50
2022/06/14 08:28:02;;;;;;;8.18;1.70;;;;;;;17.76;55.55;102298.97;5073908;28;20514;-57
2022/06/14 08:30:36;;;;;;;6.75;1.45;;;;;;;18.03;56.10;102300.59;5072376;28;20135;-47
2022/06/14 08:33:12;;;;;;;5.55;1.60;;;;;;;18.01;56.73;102297.19;5074062;28;20040;-57
2022/06/14 08:35:46;;;;;;;6.57;1.48;;;;;;;18.05;55.73;102298.66;5073571;28;20169;-57
2022/06/14 08:38:20;;;;;;;5.55;1.30;;;;;;;18.01;55.62;102292.72;5072134;28;20052;-49
2022/06/14 08:41:05;;;;;;;7.03;1.75;;;;;;;17.94;55.44;102295.94;5073560;28;20039;-48
2022/06/14 08:43:38;;;;;;;7.45;1.55;;;;;;;18.00;55.46;102300.84;5073334;28;20044;-57
2022/06/14 08:46:22;;;;;;;5.47;1.45;;;;;;;18.03;55.28;102301.44;5073401;28;20040;-57
2022/06/14 08:49:07;;;;;;;9.60;1.70;;;;;;;18.07;55.66;102300.25;5072136;28;20105;-50
2022/06/14 08:51:50;;;;;;;8.88;1.65;;;;;;;18.03;54.74;102300.59;5073218;28;20051;-48
2022/06/14 08:54:49;;;;;;;6.05;1.33;;;;;;;18.23;55.70;102291.13;5071824;28;20049;-51
2022/06/14 08:57:39;;;;;;;8.20;1.50;;;;;;;18.25;56.26;102294.50;5073097;28;20045;-53
2022/06/14 09:00:19;;;;;;;8.85;1.60;;;;;;;18.29;54.99;102292.47;5072095;28;20068;-57
2022/06/14 09:03:34;;;;;;;3.45;1.05;;;;;;;18.21;54.75;102285.91;5073106;28;20365;-52
2022/06/14 09:06:36;;;;;;;5.65;1.40;;;;;;;18.56;56.69;102286.88;5073372;28;20055;-50
2022/06/14 09:09:42;;;;;;;8.18;1.40;;;;;;;18.93;53.97;102281.38;5053716;28;20071;-49
2022/06/14 09:12:56;;;;;;;6.95;1.20;;;;;;;19.34;54.15;102279.91;5073103;28;20053;-53
2022/06/14 09:16:06;;;;;;;9.00;1.50;;;;;;;19.68;52.38;102284.38;5061516;28;20403;-57
2022/06/14 09:18:56;;;;;;;6.10;1.40;;;;;;;19.82;49.53;102283.25;5059212;28;20178;-53
2022/06/14 09:21:40;;;;;;;7.40;1.40;;;;;;;19.74;51.30;102279.38;5069489;28;20816;-52
2022/06/14 09:24:15;;;;;;;8.77;1.45;;;;;;;19.70;49.22;102285.06;5058825;28;20037;-52
2022/06/14 09:27:06;;;;;;;6.70;1.38;;;;;;;19.54;48.06;102283.66;5059254;28;20052;-50
2022/06/14 09:30:14;;;;;;;5.43;1.20;;;;;;;19.72;51.73;102283.97;5056638;28;20477;-50
2022/06/14 09:33:13;;;;;;;5.88;1.20;;;;;;;19.81;51.33;102279.75;5060145;28;20102;-50
2022/06/14 09:36:03;;;;;;;5.68;1.60;;;;;;;19.95;50.76;102281.28;5052915;28;20545;-50
2022/06/14 09:39:02;;;;;;;5.95;1.60;;;;;;;19.66;50.54;102281.81;5054566;28;20049;-58
2022/06/14 09:42:03;;;;;;;4.75;1.52;;;;;;;19.79;49.77;102283.50;5067156;28;20056;-57
2022/06/14 09:44:57;;;;;;;5.28;1.70;;;;;;;19.86;49.30;102282.03;5027739;28;20079;-47
2022/06/14 09:47:47;;;;;;;5.60;1.67;;;;;;;19.88;51.54;102280.09;5058482;28;20118;-47
2022/06/14 09:50:58;;;;;;;9.85;1.42;;;;;;;20.35;50.36;102269.94;5030064;28;20067;-52
2022/06/14 09:53:53;;;;;;;6.88;1.35;;;;;;;20.82;48.24;102272.22;5068970;28;20051;-49
2022/06/14 09:56:53;;;;;;;5.18;1.38;;;;;;;21.14;45.73;102268.56;5056126;28;20457;-51
2022/06/14 09:59:52;;;;;;;6.20;1.45;;;;;;;21.16;46.62;102258.59;5053027;28;20075;-53
2022/06/14 10:02:34;;;;;;;5.72;1.25;;;;;;;21.66;48.91;102259.56;5048335;28;20060;-51
2022/06/14 10:05:31;;;;;;;5.93;1.58;;;;;;;21.87;46.07;102256.75;5051520;28;20047;-52
2022/06/14 10:08:19;;;;;;;6.40;1.48;;;;;;;22.34;46.19;102254.22;5047518;28;20508;-51
2022/06/14 10:10:58;;;;;;;5.53;1.52;;;;;;;22.71;42.50;102242.69;5059021;28;20040;-51
2022/06/14 10:13:46;;;;;;;5.57;1.65;;;;;;;22.87;40.83;102251.97;5058726;28;20438;-50
2022/06/14 10:16:29;;;;;;;4.60;1.20;;;;;;;22.95;40.75;102250.25;5056445;28;20060;-50
2022/06/14 10:19:15;;;;;;;4.88;1.45;;;;;;;23.07;40.92;102242.84;5060462;28;20049;-57
2022/06/14 10:21:49;;;;;;;4.10;1.20;;;;;;;23.19;40.57;102250.72;5058761;28;20060;-49
2022/06/14 10:24:25;;;;;;;5.60;1.58;;;;;;;23.38;39.92;102237.22;5051092;28;20087;-59
2022/06/14 10:30:08;;;;;;;7.57;1.48;;;;;;;23.12;39.47;102229.88;5063320;28;20099;-57
2022/06/14 10:33:07;;;;;;;5.20;1.20;;;;;;;23.40;40.28;102235.22;5061367;28;20043;-57
2022/06/14 10:35:49;;;;;;;6.38;1.50;;;;;;;23.12;38.43;102223.59;5055156;28;20057;-58
2022/06/14 10:38:50;;;;;;;7.72;1.33;;;;;;;22.61;40.36;102231.19;5062707;28;20041;-58
2022/06/14 10:41:30;;;;;;;4.65;1.30;;;;;;;22.59;40.75;102227.78;5064135;28;20059;-58
2022/06/14 10:44:13;;;;;;;6.93;1.50;;;;;;;22.66;40.90;102223.56;5057161;28;20067;-58
2022/06/14 10:46:50;;;;;;;4.65;1.42;;;;;;;22.47;40.48;102226.28;5063268;28;20053;-58
2022/06/14 10:50:07;;;;;;;6.90;1.40;;;;;;;22.50;40.38;102218.78;5064604;28;20556;-56
2022/06/14 10:52:48;;;;;;;6.03;1.42;;;;;;;22.62;41.38;102212.25;5065491;28;20045;-57
2022/06/14 10:55:52;;;;;;;6.03;1.40;;;;;;;23.23;41.36;102218.09;5062798;28;20528;-57
2022/06/14 10:58:47;;;;;;;6.45;1.45;;;;;;;23.01;39.72;102205.03;5053496;28;20056;-58
2022/06/14 11:01:31;;;;;;;5.82;1.33;;;;;;;23.06;39.73;102205.44;5064876;28;20388;-58
2022/06/14 11:04:06;;;;;;;7.07;1.42;;;;;;;23.23;39.46;102202.00;5059227;28;20050;-51
2022/06/14 11:06:59;;;;;;;4.88;1.33;;;;;;;23.04;39.88;102197.56;5069892;28;20040;-48
2022/06/14 11:09:39;;;;;;;7.40;1.30;;;;;;;22.81;41.24;102197.09;5056415;28;20044;-57
2022/06/14 11:12:23;;;;;;;6.82;1.60;;;;;;;22.85;41.36;102197.63;5075409;28;20465;-57
2022/06/14 11:14:59;;;;;;;6.90;1.35;;;;;;;22.85;41.10;102197.63;5075225;28;20127;-57
2022/06/14 11:17:51;;;;;;;4.90;1.20;;;;;;;22.81;39.67;102191.75;5075184;28;20040;-58
2022/06/14 11:20:39;;;;;;;7.07;1.38;;;;;;;23.26;39.21;102199.00;5075236;28;20106;-57
2022/06/14 11:23:15;;;;;;;4.35;1.30;;;;;;;23.61;38.99;102199.16;5075077;28;20055;-57
2022/06/14 11:25:50;;;;;;;5.88;1.30;;;;;;;23.98;39.00;102187.41;5075047;28;20044;-57
2022/06/14 11:28:30;;;;;;;6.53;1.40;;;;;;;24.44;40.21;102181.84;5075041;28;20052;-57
2022/06/14 11:31:10;;;;;;;6.57;1.85;;;;;;;24.37;37.45;102175.44;5075036;28;20565;-58
2022/06/14 11:33:52;;;;;;;6.32;1.58;;;;;;;24.86;36.77;102172.16;5074746;28;20040;-53
2022/06/14 11:36:30;;;;;;;5.93;1.55;;;;;;;24.66;36.33;102172.41;5074695;28;20045;-52
2022/06/14 11:39:23;;;;;;;5.38;1.35;;;;;;;24.25;36.36;102169.47;5074672;28;20487;-58
2022/06/14 11:41:52;;;;;;;5.93;1.50;;;;;;;24.27;38.18;102164.81;5074966;28;20041;-49
2022/06/14 11:44:49;;;;;;;7.03;1.67;;;;;;;24.58;37.28;102158.91;5074542;28;20051;-49
2022/06/14 11:47:24;;;;;;;7.60;1.50;;;;;;;24.89;37.12;102164.59;5073680;28;20063;-57
2022/06/14 11:50:01;;;;;;;7.70;1.30;;;;;;;25.17;35.45;102158.97;5075106;28;20495;-57
2022/06/14 11:52:47;;;;;;;6.22;1.30;;;;;;;25.27;35.63;102150.75;5074465;28;20048;-48
2022/06/14 11:55:27;;;;;;;7.05;1.50;;;;;;;25.70;36.37;102159.56;5074491;28;20052;-50
2022/06/14 11:58:09;;;;;;;4.63;1.27;;;;;;;25.63;35.97;102153.16;5074351;28;20049;-49
2022/06/14 12:00:48;;;;;;;6.97;1.50;;;;;;;25.78;34.33;102147.91;5074068;28;20045;-58
2022/06/14 12:03:40;;;;;;;5.50;1.20;;;;;;;26.05;35.23;102151.31;5074613;28;20048;-57
2022/06/14 12:06:21;;;;;;;4.28;1.50;;;;;;;26.13;33.77;102152.13;5089902;28;20143;-50
2022/06/14 12:09:09;;;;;;;3.72;0.98;;;;;;;26.46;33.93;102141.25;5074527;28;20123;-50
2022/06/14 12:11:46;;;;;;;5.32;1.40;;;;;;;26.09;33.99;102153.47;5089852;28;20518;-49
2022/06/14 12:14:53;;;;;;;5.63;1.40;;;;;;;25.53;32.86;102147.09;5074075;28;20536;-47
2022/06/14 12:17:28;;;;;;;4.22;1.13;;;;;;;25.91;33.91;102142.03;5073862;28;20067;-46